sensor_id;sensor_type;location;lat;lon;timestamp;temperature;humidity
3996;DHT22;2012;49.794;9.722;2023-06-04T00:02:07;13.50;99.90
3996;DHT22;2012;49.794;9.722;2023-06-04T00:04:34;13.30;99.90
3996;DHT22;2012;49.794;9.722;2023-06-04T00:07:01;13.10;99.90
3996;DHT22;2012;49.794;9.722;2023-06-04T00:09:28;13.20;99.90
3996;DHT22;2012;49.794;9.722;2023-06-04T00:11:55;13.20;99.90
3996;DHT22;2012;49.794;9.722;2023-06-04T00:14:23;13.00;99.90
3996;DHT22;2012;49.794;9.722;2023-06-04T00:16:50;13.00;99.90
3996;DHT22;2012;49.794;9.722;2023-06-04T00:19:17;13.10;99.90
3996;DHT22;2012;49.794;9.722;2023-06-04T00:21:45;13.00;99.90
3996;DHT22;2012;49.794;9.722;2023-06-04T00:24:12;12.70;99.90
3996;DHT22;2012;49.794;9.722;2023-06-04T00:26:40;12.90;99.90
3996;DHT22;2012;49.794;9.722;2023-06-04T00:29:07;12.90;99.90
3996;DHT22;2012;49.794;9.722;2023-06-04T00:31:34;12.30;99.90
3996;DHT22;2012;49.794;9.722;2023-06-04T00:34:02;12.40;99.90
3996;DHT22;2012;49.794;9.722;2023-06-04T00:36:29;12.40;99.90
3996;DHT22;2012;49.794;9.722;2023-06-04T00:38:56;12.50;99.90
3996;DHT22;2012;49.794;9.722;2023-06-04T00:41:23;12.50;99.90
3996;DHT22;2012;49.794;9.722;2023-06-04T00:43:50;12.30;99.90
3996;DHT22;2012;49.794;9.722;2023-06-04T00:46:26;12.30;99.90
3996;DHT22;2012;49.794;9.722;2023-06-04T00:48:54;12.30;99.90
3996;DHT22;2012;49.794;9.722;2023-06-04T00:51:21;12.30;99.90
3996;DHT22;2012;49.794;9.722;2023-06-04T00:53:49;12.30;99.90
3996;DHT22;2012;49.794;9.722;2023-06-04T00:56:17;12.30;99.90
3996;DHT22;2012;49.794;9.722;2023-06-04T00:58:45;12.20;99.90
3996;DHT22;2012;49.794;9.722;2023-06-04T01:01:26;12.00;99.90
3996;DHT22;2012;49.794;9.722;2023-06-04T01:03:58;12.00;99.90
3996;DHT22;2012;49.794;9.722;2023-06-04T01:06:37;11.90;99.90
3996;DHT22;2012;49.794;9.722;2023-06-04T01:09:05;12.00;99.90
3996;DHT22;2012;49.794;9.722;2023-06-04T01:13:59;11.80;99.90
3996;DHT22;2012;49.794;9.722;2023-06-04T01:16:28;11.70;99.90
3996;DHT22;2012;49.794;9.722;2023-06-04T01:18:58;11.80;99.90
3996;DHT22;2012;49.794;9.722;2023-06-04T01:21:29;11.70;99.90
3996;DHT22;2012;49.794;9.722;2023-06-04T01:24:00;11.80;99.90
3996;DHT22;2012;49.794;9.722;2023-06-04T01:26:29;11.60;99.90
3996;DHT22;2012;49.794;9.722;2023-06-04T01:28:57;11.70;99.90
3996;DHT22;2012;49.794;9.722;2023-06-04T01:31:25;11.40;99.90
3996;DHT22;2012;49.794;9.722;2023-06-04T01:33:54;11.40;99.90
3996;DHT22;2012;49.794;9.722;2023-06-04T01:36:21;11.40;99.90
3996;DHT22;2012;49.794;9.722;2023-06-04T01:38:47;11.60;99.90
3996;DHT22;2012;49.794;9.722;2023-06-04T01:41:14;11.50;99.90
3996;DHT22;2012;49.794;9.722;2023-06-04T01:43:41;11.50;99.90
3996;DHT22;2012;49.794;9.722;2023-06-04T01:46:08;11.30;99.90
3996;DHT22;2012;49.794;9.722;2023-06-04T01:48:35;11.30;99.90
3996;DHT22;2012;49.794;9.722;2023-06-04T01:51:03;11.40;99.90
3996;DHT22;2012;49.794;9.722;2023-06-04T01:53:30;11.30;99.90
3996;DHT22;2012;49.794;9.722;2023-06-04T01:55:57;11.20;99.90
3996;DHT22;2012;49.794;9.722;2023-06-04T01:58:25;11.10;99.90
3996;DHT22;2012;49.794;9.722;2023-06-04T02:00:56;11.20;99.90
3996;DHT22;2012;49.794;9.722;2023-06-04T02:03:27;11.10;99.90
3996;DHT22;2012;49.794;9.722;2023-06-04T02:05:54;11.00;99.90
3996;DHT22;2012;49.794;9.722;2023-06-04T02:08:21;11.00;99.90
3996;DHT22;2012;49.794;9.722;2023-06-04T02:10:52;11.00;99.90
3996;DHT22;2012;49.794;9.722;2023-06-04T02:13:18;10.90;99.90
3996;DHT22;2012;49.794;9.722;2023-06-04T02:15:45;10.90;99.90
3996;DHT22;2012;49.794;9.722;2023-06-04T02:18:15;10.90;99.90
3996;DHT22;2012;49.794;9.722;2023-06-04T02:20:45;10.80;99.90
3996;DHT22;2012;49.794;9.722;2023-06-04T02:23:13;10.70;99.90
3996;DHT22;2012;49.794;9.722;2023-06-04T02:25:41;10.70;99.90
3996;DHT22;2012;49.794;9.722;2023-06-04T02:28:08;10.80;99.90
3996;DHT22;2012;49.794;9.722;2023-06-04T02:30:35;10.80;99.90
3996;DHT22;2012;49.794;9.722;2023-06-04T02:33:02;10.80;99.90
3996;DHT22;2012;49.794;9.722;2023-06-04T02:35:31;10.90;99.90
3996;DHT22;2012;49.794;9.722;2023-06-04T02:37:58;10.80;99.90
3996;DHT22;2012;49.794;9.722;2023-06-04T02:40:26;10.70;99.90
3996;DHT22;2012;49.794;9.722;2023-06-04T02:42:53;10.50;99.90
3996;DHT22;2012;49.794;9.722;2023-06-04T02:45:21;10.40;99.90
3996;DHT22;2012;49.794;9.722;2023-06-04T02:47:48;10.50;99.90
3996;DHT22;2012;49.794;9.722;2023-06-04T02:50:16;10.50;99.90
3996;DHT22;2012;49.794;9.722;2023-06-04T02:52:43;10.40;99.90
3996;DHT22;2012;49.794;9.722;2023-06-04T02:55:10;10.40;99.90
3996;DHT22;2012;49.794;9.722;2023-06-04T02:57:40;10.40;99.90
3996;DHT22;2012;49.794;9.722;2023-06-04T03:00:13;10.30;99.90
3996;DHT22;2012;49.794;9.722;2023-06-04T03:02:45;10.30;99.90
3996;DHT22;2012;49.794;9.722;2023-06-04T03:05:15;10.30;99.90
3996;DHT22;2012;49.794;9.722;2023-06-04T03:07:46;10.30;99.90
3996;DHT22;2012;49.794;9.722;2023-06-04T03:10:14;10.30;99.90
3996;DHT22;2012;49.794;9.722;2023-06-04T03:12:41;10.20;99.90
3996;DHT22;2012;49.794;9.722;2023-06-04T03:15:09;10.30;99.90
3996;DHT22;2012;49.794;9.722;2023-06-04T03:17:37;10.20;99.90
3996;DHT22;2012;49.794;9.722;2023-06-04T03:20:04;10.00;99.90
3996;DHT22;2012;49.794;9.722;2023-06-04T03:22:33;10.10;99.90
3996;DHT22;2012;49.794;9.722;2023-06-04T03:25:02;10.10;99.90
3996;DHT22;2012;49.794;9.722;2023-06-04T03:27:31;10.00;99.90
3996;DHT22;2012;49.794;9.722;2023-06-04T03:29:58;10.00;99.90
3996;DHT22;2012;49.794;9.722;2023-06-04T03:32:26;9.90;99.90
3996;DHT22;2012;49.794;9.722;2023-06-04T03:34:53;10.00;99.90
3996;DHT22;2012;49.794;9.722;2023-06-04T03:37:20;10.10;99.90
3996;DHT22;2012;49.794;9.722;2023-06-04T03:39:47;9.90;99.90
3996;DHT22;2012;49.794;9.722;2023-06-04T03:42:16;9.90;99.90
3996;DHT22;2012;49.794;9.722;2023-06-04T03:44:43;10.00;99.90
3996;DHT22;2012;49.794;9.722;2023-06-04T03:47:10;9.80;99.90
3996;DHT22;2012;49.794;9.722;2023-06-04T03:49:38;9.80;99.90
3996;DHT22;2012;49.794;9.722;2023-06-04T03:52:05;9.90;99.90
3996;DHT22;2012;49.794;9.722;2023-06-04T03:54:32;9.90;99.90
3996;DHT22;2012;49.794;9.722;2023-06-04T03:56:59;9.80;99.90
3996;DHT22;2012;49.794;9.722;2023-06-04T03:59:26;9.90;99.90
3996;DHT22;2012;49.794;9.722;2023-06-04T04:01:53;9.90;99.90
3996;DHT22;2012;49.794;9.722;2023-06-04T04:04:20;9.90;99.90
3996;DHT22;2012;49.794;9.722;2023-06-04T04:06:47;9.90;99.90
3996;DHT22;2012;49.794;9.722;2023-06-04T04:09:14;10.00;99.90
3996;DHT22;2012;49.794;9.722;2023-06-04T04:11:41;10.10;99.90
3996;DHT22;2012;49.794;9.722;2023-06-04T04:14:09;10.00;99.90
3996;DHT22;2012;49.794;9.722;2023-06-04T04:16:35;9.90;99.90
3996;DHT22;2012;49.794;9.722;2023-06-04T04:19:03;10.00;99.90
3996;DHT22;2012;49.794;9.722;2023-06-04T04:21:30;10.20;99.90
3996;DHT22;2012;49.794;9.722;2023-06-04T04:23:57;10.20;99.90
3996;DHT22;2012;49.794;9.722;2023-06-04T04:26:24;10.10;99.90
3996;DHT22;2012;49.794;9.722;2023-06-04T04:28:56;10.20;99.90
3996;DHT22;2012;49.794;9.722;2023-06-04T04:31:29;9.80;99.90
3996;DHT22;2012;49.794;9.722;2023-06-04T04:33:57;10.10;99.90
3996;DHT22;2012;49.794;9.722;2023-06-04T04:36:24;10.30;99.90
3996;DHT22;2012;49.794;9.722;2023-06-04T04:38:53;10.40;99.90
3996;DHT22;2012;49.794;9.722;2023-06-04T04:41:30;10.50;99.90
3996;DHT22;2012;49.794;9.722;2023-06-04T04:44:04;10.70;99.90
3996;DHT22;2012;49.794;9.722;2023-06-04T04:46:32;10.70;99.90
3996;DHT22;2012;49.794;9.722;2023-06-04T04:49:00;10.80;99.90
3996;DHT22;2012;49.794;9.722;2023-06-04T04:51:27;10.80;99.90
3996;DHT22;2012;49.794;9.722;2023-06-04T04:53:57;10.90;99.90
3996;DHT22;2012;49.794;9.722;2023-06-04T04:56:25;10.90;99.90
3996;DHT22;2012;49.794;9.722;2023-06-04T04:58:54;11.00;99.90
3996;DHT22;2012;49.794;9.722;2023-06-04T05:01:21;11.00;99.90
3996;DHT22;2012;49.794;9.722;2023-06-04T05:03:48;11.10;99.90
3996;DHT22;2012;49.794;9.722;2023-06-04T05:06:16;11.20;99.90
3996;DHT22;2012;49.794;9.722;2023-06-04T05:08:44;11.30;99.90
3996;DHT22;2012;49.794;9.722;2023-06-04T05:11:12;11.40;99.90
3996;DHT22;2012;49.794;9.722;2023-06-04T05:13:39;11.40;99.90
3996;DHT22;2012;49.794;9.722;2023-06-04T05:16:09;11.50;99.90
3996;DHT22;2012;49.794;9.722;2023-06-04T05:18:39;11.60;99.90
3996;DHT22;2012;49.794;9.722;2023-06-04T05:21:15;11.70;99.90
3996;DHT22;2012;49.794;9.722;2023-06-04T05:23:48;11.80;99.90
3996;DHT22;2012;49.794;9.722;2023-06-04T05:26:18;11.80;99.90
3996;DHT22;2012;49.794;9.722;2023-06-04T05:28:49;11.80;99.90
3996;DHT22;2012;49.794;9.722;2023-06-04T05:31:17;11.90;99.90
3996;DHT22;2012;49.794;9.722;2023-06-04T05:33:45;11.90;99.90
3996;DHT22;2012;49.794;9.722;2023-06-04T05:36:15;12.10;99.90
3996;DHT22;2012;49.794;9.722;2023-06-04T05:38:49;12.20;99.90
3996;DHT22;2012;49.794;9.722;2023-06-04T05:41:27;12.30;99.90
3996;DHT22;2012;49.794;9.722;2023-06-04T05:43:55;12.40;99.90
3996;DHT22;2012;49.794;9.722;2023-06-04T05:46:22;12.50;99.90
3996;DHT22;2012;49.794;9.722;2023-06-04T05:48:50;12.60;99.90
3996;DHT22;2012;49.794;9.722;2023-06-04T05:51:19;12.60;99.90
3996;DHT22;2012;49.794;9.722;2023-06-04T05:53:47;12.80;99.90
3996;DHT22;2012;49.794;9.722;2023-06-04T05:56:14;12.90;99.90
3996;DHT22;2012;49.794;9.722;2023-06-04T05:58:41;12.90;99.90
3996;DHT22;2012;49.794;9.722;2023-06-04T06:01:09;12.90;99.90
3996;DHT22;2012;49.794;9.722;2023-06-04T06:03:37;12.90;99.90
3996;DHT22;2012;49.794;9.722;2023-06-04T06:06:04;13.20;99.90
3996;DHT22;2012;49.794;9.722;2023-06-04T06:08:32;13.30;99.90
3996;DHT22;2012;49.794;9.722;2023-06-04T06:10:59;13.30;99.90
3996;DHT22;2012;49.794;9.722;2023-06-04T06:13:26;13.50;99.90
3996;DHT22;2012;49.794;9.722;2023-06-04T06:15:55;13.60;99.90
3996;DHT22;2012;49.794;9.722;2023-06-04T06:18:22;13.60;99.90
3996;DHT22;2012;49.794;9.722;2023-06-04T06:20:49;13.70;99.90
3996;DHT22;2012;49.794;9.722;2023-06-04T06:23:16;14.00;99.90
3996;DHT22;2012;49.794;9.722;2023-06-04T06:25:45;14.10;99.90
3996;DHT22;2012;49.794;9.722;2023-06-04T06:28:18;14.10;99.90
3996;DHT22;2012;49.794;9.722;2023-06-04T06:30:46;14.30;99.90
3996;DHT22;2012;49.794;9.722;2023-06-04T06:33:14;14.40;99.90
3996;DHT22;2012;49.794;9.722;2023-06-04T06:35:41;14.30;99.90
3996;DHT22;2012;49.794;9.722;2023-06-04T06:38:08;14.40;99.90
3996;DHT22;2012;49.794;9.722;2023-06-04T06:40:35;14.40;99.90
3996;DHT22;2012;49.794;9.722;2023-06-04T06:43:02;14.60;99.40
3996;DHT22;2012;49.794;9.722;2023-06-04T06:45:29;14.80;99.00
3996;DHT22;2012;49.794;9.722;2023-06-04T06:47:55;14.90;99.90
3996;DHT22;2012;49.794;9.722;2023-06-04T06:50:22;15.10;97.10
3996;DHT22;2012;49.794;9.722;2023-06-04T06:52:49;15.10;97.20
3996;DHT22;2012;49.794;9.722;2023-06-04T06:55:16;15.20;97.30
3996;DHT22;2012;49.794;9.722;2023-06-04T06:57:44;15.30;97.10
3996;DHT22;2012;49.794;9.722;2023-06-04T07:00:11;15.40;95.90
3996;DHT22;2012;49.794;9.722;2023-06-04T07:02:38;15.30;96.40
3996;DHT22;2012;49.794;9.722;2023-06-04T07:05:05;15.50;95.70
3996;DHT22;2012;49.794;9.722;2023-06-04T07:07:32;15.70;95.00
3996;DHT22;2012;49.794;9.722;2023-06-04T07:09:59;15.80;94.20
3996;DHT22;2012;49.794;9.722;2023-06-04T07:12:26;15.90;94.20
3996;DHT22;2012;49.794;9.722;2023-06-04T07:14:53;16.10;94.00
3996;DHT22;2012;49.794;9.722;2023-06-04T07:17:20;16.20;92.30
3996;DHT22;2012;49.794;9.722;2023-06-04T07:19:47;16.30;91.80
3996;DHT22;2012;49.794;9.722;2023-06-04T07:22:13;16.30;91.90
3996;DHT22;2012;49.794;9.722;2023-06-04T07:24:42;16.50;91.20
3996;DHT22;2012;49.794;9.722;2023-06-04T07:27:13;16.60;90.40
3996;DHT22;2012;49.794;9.722;2023-06-04T07:29:43;16.80;90.40
3996;DHT22;2012;49.794;9.722;2023-06-04T07:32:11;16.80;88.40
3996;DHT22;2012;49.794;9.722;2023-06-04T07:34:39;16.80;88.80
3996;DHT22;2012;49.794;9.722;2023-06-04T07:37:06;16.90;90.10
3996;DHT22;2012;49.794;9.722;2023-06-04T07:39:35;17.20;90.10
3996;DHT22;2012;49.794;9.722;2023-06-04T07:42:03;17.30;89.00
3996;DHT22;2012;49.794;9.722;2023-06-04T07:44:31;17.30;89.60
3996;DHT22;2012;49.794;9.722;2023-06-04T07:46:57;17.40;89.30
3996;DHT22;2012;49.794;9.722;2023-06-04T07:49:24;17.40;89.00
3996;DHT22;2012;49.794;9.722;2023-06-04T07:51:51;17.60;88.30
3996;DHT22;2012;49.794;9.722;2023-06-04T07:54:18;17.60;86.70
3996;DHT22;2012;49.794;9.722;2023-06-04T07:56:45;17.80;86.80
3996;DHT22;2012;49.794;9.722;2023-06-04T07:59:12;17.70;84.40
3996;DHT22;2012;49.794;9.722;2023-06-04T08:01:39;17.80;83.70
3996;DHT22;2012;49.794;9.722;2023-06-04T08:04:06;18.00;85.80
3996;DHT22;2012;49.794;9.722;2023-06-04T08:06:33;18.00;85.80
3996;DHT22;2012;49.794;9.722;2023-06-04T08:09:00;18.20;86.20
3996;DHT22;2012;49.794;9.722;2023-06-04T08:11:27;18.40;83.20
3996;DHT22;2012;49.794;9.722;2023-06-04T08:13:53;18.50;82.90
3996;DHT22;2012;49.794;9.722;2023-06-04T08:16:20;18.70;82.50
3996;DHT22;2012;49.794;9.722;2023-06-04T08:18:47;18.70;82.80
3996;DHT22;2012;49.794;9.722;2023-06-04T08:21:14;18.70;83.60
3996;DHT22;2012;49.794;9.722;2023-06-04T08:23:43;19.00;81.60
3996;DHT22;2012;49.794;9.722;2023-06-04T08:26:10;19.00;78.70
3996;DHT22;2012;49.794;9.722;2023-06-04T08:28:37;19.10;79.50
3996;DHT22;2012;49.794;9.722;2023-06-04T08:31:05;19.30;82.20
3996;DHT22;2012;49.794;9.722;2023-06-04T08:33:32;19.40;81.00
3996;DHT22;2012;49.794;9.722;2023-06-04T08:35:59;19.30;82.40
3996;DHT22;2012;49.794;9.722;2023-06-04T08:38:26;19.40;78.20
3996;DHT22;2012;49.794;9.722;2023-06-04T08:40:53;19.60;76.80
3996;DHT22;2012;49.794;9.722;2023-06-04T08:43:24;19.70;77.80
3996;DHT22;2012;49.794;9.722;2023-06-04T08:45:59;19.90;78.10
3996;DHT22;2012;49.794;9.722;2023-06-04T08:48:29;19.70;75.20
3996;DHT22;2012;49.794;9.722;2023-06-04T08:50:57;19.80;73.70
3996;DHT22;2012;49.794;9.722;2023-06-04T08:53:26;20.00;74.00
3996;DHT22;2012;49.794;9.722;2023-06-04T08:55:53;20.10;72.40
3996;DHT22;2012;49.794;9.722;2023-06-04T08:58:21;20.20;70.00
3996;DHT22;2012;49.794;9.722;2023-06-04T09:00:49;20.30;69.80
3996;DHT22;2012;49.794;9.722;2023-06-04T09:03:16;20.40;70.90
3996;DHT22;2012;49.794;9.722;2023-06-04T09:05:44;20.50;67.10
3996;DHT22;2012;49.794;9.722;2023-06-04T09:08:16;20.60;68.50
3996;DHT22;2012;49.794;9.722;2023-06-04T09:10:44;20.80;67.00
3996;DHT22;2012;49.794;9.722;2023-06-04T09:13:13;21.00;63.70
3996;DHT22;2012;49.794;9.722;2023-06-04T09:15:41;20.70;61.60
3996;DHT22;2012;49.794;9.722;2023-06-04T09:18:08;20.90;63.80
3996;DHT22;2012;49.794;9.722;2023-06-04T09:20:35;21.00;64.70
3996;DHT22;2012;49.794;9.722;2023-06-04T09:23:12;21.20;65.00
3996;DHT22;2012;49.794;9.722;2023-06-04T09:25:42;21.20;65.70
3996;DHT22;2012;49.794;9.722;2023-06-04T09:28:10;21.20;64.00
3996;DHT22;2012;49.794;9.722;2023-06-04T09:30:36;21.40;64.60
3996;DHT22;2012;49.794;9.722;2023-06-04T09:33:09;21.30;63.10
3996;DHT22;2012;49.794;9.722;2023-06-04T09:35:36;21.60;64.20
3996;DHT22;2012;49.794;9.722;2023-06-04T09:38:05;21.70;60.90
3996;DHT22;2012;49.794;9.722;2023-06-04T09:40:37;21.80;61.90
3996;DHT22;2012;49.794;9.722;2023-06-04T09:43:04;21.90;61.90
3996;DHT22;2012;49.794;9.722;2023-06-04T09:45:33;22.20;60.30
3996;DHT22;2012;49.794;9.722;2023-06-04T09:48:03;22.20;60.10
3996;DHT22;2012;49.794;9.722;2023-06-04T09:50:35;22.30;59.20
3996;DHT22;2012;49.794;9.722;2023-06-04T09:53:19;22.40;59.40
3996;DHT22;2012;49.794;9.722;2023-06-04T09:55:59;22.30;56.80
3996;DHT22;2012;49.794;9.722;2023-06-04T09:58:30;22.40;57.20
3996;DHT22;2012;49.794;9.722;2023-06-04T10:00:59;22.50;56.80
3996;DHT22;2012;49.794;9.722;2023-06-04T10:03:31;22.50;56.60
3996;DHT22;2012;49.794;9.722;2023-06-04T10:06:03;22.70;57.20
3996;DHT22;2012;49.794;9.722;2023-06-04T10:08:31;22.80;55.70
3996;DHT22;2012;49.794;9.722;2023-06-04T10:11:02;22.70;55.40
3996;DHT22;2012;49.794;9.722;2023-06-04T10:14:17;22.90;55.00
3996;DHT22;2012;49.794;9.722;2023-06-04T10:16:18;23.20;54.30
3996;DHT22;2012;49.794;9.722;2023-06-04T10:19:00;23.20;53.40
3996;DHT22;2012;49.794;9.722;2023-06-04T10:21:28;22.90;52.70
3996;DHT22;2012;49.794;9.722;2023-06-04T10:23:58;23.30;54.60
3996;DHT22;2012;49.794;9.722;2023-06-04T10:26:25;23.40;54.20
3996;DHT22;2012;49.794;9.722;2023-06-04T10:28:53;23.50;52.70
3996;DHT22;2012;49.794;9.722;2023-06-04T10:31:20;23.40;54.50
3996;DHT22;2012;49.794;9.722;2023-06-04T10:33:48;23.60;53.30
3996;DHT22;2012;49.794;9.722;2023-06-04T10:36:19;23.50;49.70
3996;DHT22;2012;49.794;9.722;2023-06-04T10:41:16;23.90;50.10
3996;DHT22;2012;49.794;9.722;2023-06-04T10:43:45;23.90;51.10
3996;DHT22;2012;49.794;9.722;2023-06-04T10:46:14;23.90;49.60
3996;DHT22;2012;49.794;9.722;2023-06-04T10:48:53;23.90;48.70
3996;DHT22;2012;49.794;9.722;2023-06-04T10:51:31;23.90;50.90
3996;DHT22;2012;49.794;9.722;2023-06-04T10:53:59;24.10;48.70
3996;DHT22;2012;49.794;9.722;2023-06-04T10:56:31;24.20;47.10
3996;DHT22;2012;49.794;9.722;2023-06-04T10:59:15;24.30;47.00
3996;DHT22;2012;49.794;9.722;2023-06-04T11:01:42;24.40;49.20
3996;DHT22;2012;49.794;9.722;2023-06-04T11:04:25;24.40;47.30
3996;DHT22;2012;49.794;9.722;2023-06-04T11:09:32;24.50;47.30
3996;DHT22;2012;49.794;9.722;2023-06-04T11:12:00;24.60;48.20
3996;DHT22;2012;49.794;9.722;2023-06-04T11:14:27;24.70;46.70
3996;DHT22;2012;49.794;9.722;2023-06-04T11:16:54;24.80;47.00
3996;DHT22;2012;49.794;9.722;2023-06-04T11:19:21;24.90;46.10
3996;DHT22;2012;49.794;9.722;2023-06-04T11:21:50;25.00;46.20
3996;DHT22;2012;49.794;9.722;2023-06-04T11:24:17;25.10;45.80
3996;DHT22;2012;49.794;9.722;2023-06-04T11:26:44;25.30;46.50
3996;DHT22;2012;49.794;9.722;2023-06-04T11:29:27;25.30;45.80
3996;DHT22;2012;49.794;9.722;2023-06-04T11:31:54;24.90;42.70
3996;DHT22;2012;49.794;9.722;2023-06-04T11:34:28;24.50;43.00
3996;DHT22;2012;49.794;9.722;2023-06-04T11:36:55;24.80;44.00
3996;DHT22;2012;49.794;9.722;2023-06-04T11:39:23;24.90;43.80
3996;DHT22;2012;49.794;9.722;2023-06-04T11:41:54;25.00;44.30
3996;DHT22;2012;49.794;9.722;2023-06-04T11:44:20;25.10;44.60
3996;DHT22;2012;49.794;9.722;2023-06-04T11:46:47;25.50;45.00
3996;DHT22;2012;49.794;9.722;2023-06-04T11:49:16;25.60;44.30
3996;DHT22;2012;49.794;9.722;2023-06-04T11:51:52;25.60;43.30
3996;DHT22;2012;49.794;9.722;2023-06-04T11:54:22;25.60;42.60
3996;DHT22;2012;49.794;9.722;2023-06-04T11:56:50;25.60;43.80
3996;DHT22;2012;49.794;9.722;2023-06-04T11:59:18;25.50;42.30
3996;DHT22;2012;49.794;9.722;2023-06-04T12:01:47;25.60;41.50
3996;DHT22;2012;49.794;9.722;2023-06-04T12:04:18;25.50;40.70
3996;DHT22;2012;49.794;9.722;2023-06-04T12:06:59;25.70;42.30
3996;DHT22;2012;49.794;9.722;2023-06-04T12:09:29;25.80;42.50
3996;DHT22;2012;49.794;9.722;2023-06-04T12:12:06;25.40;40.30
3996;DHT22;2012;49.794;9.722;2023-06-04T12:14:40;25.20;40.70
3996;DHT22;2012;49.794;9.722;2023-06-04T12:17:11;25.60;40.90
3996;DHT22;2012;49.794;9.722;2023-06-04T12:19:48;25.70;42.40
3996;DHT22;2012;49.794;9.722;2023-06-04T12:22:15;25.80;41.90
3996;DHT22;2012;49.794;9.722;2023-06-04T12:24:56;26.10;41.50
3996;DHT22;2012;49.794;9.722;2023-06-04T12:27:25;26.40;41.70
3996;DHT22;2012;49.794;9.722;2023-06-04T12:29:58;26.50;40.30
3996;DHT22;2012;49.794;9.722;2023-06-04T12:32:26;26.30;39.10
3996;DHT22;2012;49.794;9.722;2023-06-04T12:34:53;26.30;38.30
3996;DHT22;2012;49.794;9.722;2023-06-04T12:37:24;26.00;38.90
3996;DHT22;2012;49.794;9.722;2023-06-04T12:39:55;26.00;38.30
3996;DHT22;2012;49.794;9.722;2023-06-04T12:42:22;26.00;39.90
3996;DHT22;2012;49.794;9.722;2023-06-04T12:44:50;26.30;39.90
3996;DHT22;2012;49.794;9.722;2023-06-04T12:47:17;26.40;38.80
3996;DHT22;2012;49.794;9.722;2023-06-04T12:49:44;26.40;38.50
3996;DHT22;2012;49.794;9.722;2023-06-04T12:52:11;26.30;38.40
3996;DHT22;2012;49.794;9.722;2023-06-04T12:54:41;26.50;40.10
3996;DHT22;2012;49.794;9.722;2023-06-04T12:57:08;26.90;38.90
3996;DHT22;2012;49.794;9.722;2023-06-04T12:59:35;26.60;38.60
3996;DHT22;2012;49.794;9.722;2023-06-04T13:02:02;26.60;37.60
3996;DHT22;2012;49.794;9.722;2023-06-04T13:04:29;26.90;39.40
3996;DHT22;2012;49.794;9.722;2023-06-04T13:06:56;27.00;37.70
3996;DHT22;2012;49.794;9.722;2023-06-04T13:09:26;27.10;37.20
3996;DHT22;2012;49.794;9.722;2023-06-04T13:11:55;26.90;37.00
3996;DHT22;2012;49.794;9.722;2023-06-04T13:14:22;27.20;37.80
3996;DHT22;2012;49.794;9.722;2023-06-04T13:16:49;27.40;37.70
3996;DHT22;2012;49.794;9.722;2023-06-04T13:19:18;27.30;37.50
3996;DHT22;2012;49.794;9.722;2023-06-04T13:21:47;27.10;36.10
3996;DHT22;2012;49.794;9.722;2023-06-04T13:24:14;27.20;36.80
3996;DHT22;2012;49.794;9.722;2023-06-04T13:26:41;27.30;38.00
3996;DHT22;2012;49.794;9.722;2023-06-04T13:29:09;27.20;36.80
3996;DHT22;2012;49.794;9.722;2023-06-04T13:31:36;27.10;36.10
3996;DHT22;2012;49.794;9.722;2023-06-04T13:34:05;27.20;36.90
3996;DHT22;2012;49.794;9.722;2023-06-04T13:36:52;27.10;36.70
3996;DHT22;2012;49.794;9.722;2023-06-04T13:39:18;27.10;36.10
3996;DHT22;2012;49.794;9.722;2023-06-04T13:41:45;27.20;38.60
3996;DHT22;2012;49.794;9.722;2023-06-04T13:44:12;27.30;36.20
3996;DHT22;2012;49.794;9.722;2023-06-04T13:46:41;27.50;36.80
3996;DHT22;2012;49.794;9.722;2023-06-04T13:49:08;27.20;36.30
3996;DHT22;2012;49.794;9.722;2023-06-04T13:51:35;27.10;37.10
3996;DHT22;2012;49.794;9.722;2023-06-04T13:54:02;27.10;37.00
3996;DHT22;2012;49.794;9.722;2023-06-04T13:56:29;27.10;36.60
3996;DHT22;2012;49.794;9.722;2023-06-04T13:58:56;27.20;36.60
3996;DHT22;2012;49.794;9.722;2023-06-04T14:01:23;27.20;37.80
3996;DHT22;2012;49.794;9.722;2023-06-04T14:03:50;27.50;37.90
3996;DHT22;2012;49.794;9.722;2023-06-04T14:06:17;27.60;37.40
3996;DHT22;2012;49.794;9.722;2023-06-04T14:08:44;27.20;36.20
3996;DHT22;2012;49.794;9.722;2023-06-04T14:11:11;27.60;37.40
3996;DHT22;2012;49.794;9.722;2023-06-04T14:13:38;27.70;37.40
3996;DHT22;2012;49.794;9.722;2023-06-04T14:16:05;27.70;37.00
3996;DHT22;2012;49.794;9.722;2023-06-04T14:18:32;27.60;37.20
3996;DHT22;2012;49.794;9.722;2023-06-04T14:20:59;27.70;37.10
3996;DHT22;2012;49.794;9.722;2023-06-04T14:23:26;27.50;36.90
3996;DHT22;2012;49.794;9.722;2023-06-04T14:25:53;27.40;36.70
3996;DHT22;2012;49.794;9.722;2023-06-04T14:28:19;27.50;38.40
3996;DHT22;2012;49.794;9.722;2023-06-04T14:30:47;27.70;37.90
3996;DHT22;2012;49.794;9.722;2023-06-04T14:33:14;27.50;37.40
3996;DHT22;2012;49.794;9.722;2023-06-04T14:35:41;27.40;37.30
3996;DHT22;2012;49.794;9.722;2023-06-04T14:38:14;27.50;37.90
3996;DHT22;2012;49.794;9.722;2023-06-04T14:40:42;27.60;37.70
3996;DHT22;2012;49.794;9.722;2023-06-04T14:43:11;27.70;38.00
3996;DHT22;2012;49.794;9.722;2023-06-04T14:45:38;27.70;38.60
3996;DHT22;2012;49.794;9.722;2023-06-04T14:48:06;27.70;37.60
3996;DHT22;2012;49.794;9.722;2023-06-04T14:50:43;27.40;37.30
3996;DHT22;2012;49.794;9.722;2023-06-04T14:53:11;27.40;37.70
3996;DHT22;2012;49.794;9.722;2023-06-04T14:55:39;27.30;38.40
3996;DHT22;2012;49.794;9.722;2023-06-04T14:58:06;27.10;38.20
3996;DHT22;2012;49.794;9.722;2023-06-04T15:00:33;26.90;37.90
3996;DHT22;2012;49.794;9.722;2023-06-04T15:03:00;27.10;38.00
3996;DHT22;2012;49.794;9.722;2023-06-04T15:05:30;26.90;38.00
3996;DHT22;2012;49.794;9.722;2023-06-04T15:07:57;27.40;39.00
3996;DHT22;2012;49.794;9.722;2023-06-04T15:10:25;27.60;38.40
3996;DHT22;2012;49.794;9.722;2023-06-04T15:12:55;27.60;38.90
3996;DHT22;2012;49.794;9.722;2023-06-04T15:15:23;27.60;38.30
3996;DHT22;2012;49.794;9.722;2023-06-04T15:17:49;27.60;38.30
3996;DHT22;2012;49.794;9.722;2023-06-04T15:20:17;27.50;38.00
3996;DHT22;2012;49.794;9.722;2023-06-04T15:22:44;27.30;38.30
3996;DHT22;2012;49.794;9.722;2023-06-04T15:25:11;27.20;38.40
3996;DHT22;2012;49.794;9.722;2023-06-04T15:27:37;27.40;38.50
3996;DHT22;2012;49.794;9.722;2023-06-04T15:30:06;27.20;37.30
3996;DHT22;2012;49.794;9.722;2023-06-04T15:32:33;27.30;37.30
3996;DHT22;2012;49.794;9.722;2023-06-04T15:35:04;27.00;37.20
3996;DHT22;2012;49.794;9.722;2023-06-04T15:37:30;26.90;37.70
3996;DHT22;2012;49.794;9.722;2023-06-04T15:39:57;27.10;37.80
3996;DHT22;2012;49.794;9.722;2023-06-04T15:42:26;27.00;38.30
3996;DHT22;2012;49.794;9.722;2023-06-04T15:44:53;26.80;36.90
3996;DHT22;2012;49.794;9.722;2023-06-04T15:47:19;26.80;38.00
3996;DHT22;2012;49.794;9.722;2023-06-04T15:49:46;26.90;37.40
3996;DHT22;2012;49.794;9.722;2023-06-04T15:52:13;27.30;37.80
3996;DHT22;2012;49.794;9.722;2023-06-04T15:54:40;27.50;37.10
3996;DHT22;2012;49.794;9.722;2023-06-04T15:57:12;27.30;37.50
3996;DHT22;2012;49.794;9.722;2023-06-04T15:59:41;27.30;36.40
3996;DHT22;2012;49.794;9.722;2023-06-04T16:02:08;27.10;36.40
3996;DHT22;2012;49.794;9.722;2023-06-04T16:04:35;27.20;37.20
3996;DHT22;2012;49.794;9.722;2023-06-04T16:07:03;26.80;36.30
3996;DHT22;2012;49.794;9.722;2023-06-04T16:09:31;26.80;36.90
3996;DHT22;2012;49.794;9.722;2023-06-04T16:11:57;26.90;36.60
3996;DHT22;2012;49.794;9.722;2023-06-04T16:14:24;26.50;36.90
3996;DHT22;2012;49.794;9.722;2023-06-04T16:16:51;26.60;37.30
3996;DHT22;2012;49.794;9.722;2023-06-04T16:19:19;26.70;38.10